sensor_id;sensor_type;location;lat;lon;timestamp;temperature;humidity
7032;DHT22;3557;48.880;8.328;2022-08-19T00:01:50;20.00;99.90
7032;DHT22;3557;48.880;8.328;2022-08-19T00:04:21;19.90;99.90
7032;DHT22;3557;48.880;8.328;2022-08-19T00:06:52;20.00;99.90
7032;DHT22;3557;48.880;8.328;2022-08-19T00:09:21;20.00;99.90
7032;DHT22;3557;48.880;8.328;2022-08-19T00:11:51;20.00;99.90
7032;DHT22;3557;48.880;8.328;2022-08-19T00:14:21;20.00;99.90
7032;DHT22;3557;48.880;8.328;2022-08-19T00:16:49;20.00;99.90
7032;DHT22;3557;48.880;8.328;2022-08-19T00:19:20;20.00;99.90
7032;DHT22;3557;48.880;8.328;2022-08-19T00:21:48;20.00;99.90
7032;DHT22;3557;48.880;8.328;2022-08-19T00:24:16;20.00;99.90
7032;DHT22;3557;48.880;8.328;2022-08-19T00:26:44;20.10;99.90
7032;DHT22;3557;48.880;8.328;2022-08-19T00:29:13;20.10;99.90
7032;DHT22;3557;48.880;8.328;2022-08-19T00:41:33;20.30;99.90
7032;DHT22;3557;48.880;8.328;2022-08-19T00:44:02;20.30;99.90
7032;DHT22;3557;48.880;8.328;2022-08-19T00:46:32;20.30;99.90
7032;DHT22;3557;48.880;8.328;2022-08-19T00:49:05;20.30;99.90
7032;DHT22;3557;48.880;8.328;2022-08-19T00:54:02;20.40;99.90
7032;DHT22;3557;48.880;8.328;2022-08-19T00:56:30;20.40;99.90
7032;DHT22;3557;48.880;8.328;2022-08-19T00:58:59;20.40;99.90
7032;DHT22;3557;48.880;8.328;2022-08-19T01:03:55;20.40;99.90
7032;DHT22;3557;48.880;8.328;2022-08-19T01:08:49;20.40;99.90
7032;DHT22;3557;48.880;8.328;2022-08-19T01:13:45;20.50;99.90
7032;DHT22;3557;48.880;8.328;2022-08-19T01:16:13;20.50;99.90
7032;DHT22;3557;48.880;8.328;2022-08-19T01:18:42;20.50;99.90
7032;DHT22;3557;48.880;8.328;2022-08-19T01:21:14;20.50;99.90
7032;DHT22;3557;48.880;8.328;2022-08-19T01:23:46;20.40;99.90
7032;DHT22;3557;48.880;8.328;2022-08-19T01:26:15;20.60;99.90
7032;DHT22;3557;48.880;8.328;2022-08-19T01:28:44;20.50;99.90
7032;DHT22;3557;48.880;8.328;2022-08-19T01:31:15;20.50;99.90
7032;DHT22;3557;48.880;8.328;2022-08-19T01:33:44;20.50;99.90
7032;DHT22;3557;48.880;8.328;2022-08-19T01:36:22;20.50;99.90
7032;DHT22;3557;48.880;8.328;2022-08-19T01:38:53;20.50;99.90
7032;DHT22;3557;48.880;8.328;2022-08-19T01:46:17;20.40;99.90
7032;DHT22;3557;48.880;8.328;2022-08-19T01:48:46;20.40;99.90
7032;DHT22;3557;48.880;8.328;2022-08-19T01:53:41;20.30;99.90
7032;DHT22;3557;48.880;8.328;2022-08-19T01:56:09;20.40;99.90
7032;DHT22;3557;48.880;8.328;2022-08-19T01:58:39;20.50;99.90
7032;DHT22;3557;48.880;8.328;2022-08-19T02:01:08;20.50;99.90
7032;DHT22;3557;48.880;8.328;2022-08-19T02:03:35;20.40;99.90
7032;DHT22;3557;48.880;8.328;2022-08-19T02:06:03;20.30;99.90
7032;DHT22;3557;48.880;8.328;2022-08-19T02:08:32;20.30;99.90
7032;DHT22;3557;48.880;8.328;2022-08-19T02:13:29;20.30;99.90
7032;DHT22;3557;48.880;8.328;2022-08-19T02:15:56;20.30;99.90
7032;DHT22;3557;48.880;8.328;2022-08-19T02:18:23;20.30;99.90
7032;DHT22;3557;48.880;8.328;2022-08-19T02:20:50;20.30;99.90
7032;DHT22;3557;48.880;8.328;2022-08-19T02:25:46;20.30;99.90
7032;DHT22;3557;48.880;8.328;2022-08-19T02:28:14;20.30;99.90
7032;DHT22;3557;48.880;8.328;2022-08-19T02:30:42;20.30;99.90
7032;DHT22;3557;48.880;8.328;2022-08-19T02:35:37;20.20;99.90
7032;DHT22;3557;48.880;8.328;2022-08-19T02:38:07;20.30;99.90
7032;DHT22;3557;48.880;8.328;2022-08-19T02:40:55;20.30;99.90
7032;DHT22;3557;48.880;8.328;2022-08-19T02:43:24;20.30;99.90
7032;DHT22;3557;48.880;8.328;2022-08-19T02:45:54;20.30;99.90
7032;DHT22;3557;48.880;8.328;2022-08-19T02:48:23;20.20;99.90
7032;DHT22;3557;48.880;8.328;2022-08-19T02:50:52;20.20;99.90
7032;DHT22;3557;48.880;8.328;2022-08-19T02:53:22;20.20;99.90
7032;DHT22;3557;48.880;8.328;2022-08-19T02:55:50;20.20;99.90
7032;DHT22;3557;48.880;8.328;2022-08-19T02:58:18;20.30;99.90
7032;DHT22;3557;48.880;8.328;2022-08-19T03:00:48;20.30;99.90
7032;DHT22;3557;48.880;8.328;2022-08-19T03:03:18;20.30;99.90
7032;DHT22;3557;48.880;8.328;2022-08-19T03:05:46;20.40;99.90
7032;DHT22;3557;48.880;8.328;2022-08-19T03:08:14;20.40;99.90
7032;DHT22;3557;48.880;8.328;2022-08-19T03:10:44;20.40;99.90
7032;DHT22;3557;48.880;8.328;2022-08-19T03:13:13;20.40;99.90
7032;DHT22;3557;48.880;8.328;2022-08-19T03:15:41;20.40;99.90
7032;DHT22;3557;48.880;8.328;2022-08-19T03:18:10;20.40;99.90
7032;DHT22;3557;48.880;8.328;2022-08-19T03:20:45;20.40;99.90
7032;DHT22;3557;48.880;8.328;2022-08-19T03:23:13;20.40;99.90
7032;DHT22;3557;48.880;8.328;2022-08-19T03:25:42;20.40;99.90
7032;DHT22;3557;48.880;8.328;2022-08-19T03:28:12;20.30;99.90
7032;DHT22;3557;48.880;8.328;2022-08-19T03:30:42;20.30;99.90
7032;DHT22;3557;48.880;8.328;2022-08-19T03:35:38;20.30;99.90
7032;DHT22;3557;48.880;8.328;2022-08-19T03:38:06;20.30;99.90
7032;DHT22;3557;48.880;8.328;2022-08-19T03:40:36;20.30;99.90
7032;DHT22;3557;48.880;8.328;2022-08-19T03:43:03;20.20;99.90
7032;DHT22;3557;48.880;8.328;2022-08-19T03:50:26;20.20;99.90
7032;DHT22;3557;48.880;8.328;2022-08-19T03:52:54;20.10;99.90
7032;DHT22;3557;48.880;8.328;2022-08-19T03:55:22;20.10;99.90
7032;DHT22;3557;48.880;8.328;2022-08-19T04:00:17;20.10;99.90
7032;DHT22;3557;48.880;8.328;2022-08-19T04:02:44;20.00;99.90
7032;DHT22;3557;48.880;8.328;2022-08-19T04:05:11;20.00;99.90
7032;DHT22;3557;48.880;8.328;2022-08-19T04:07:39;20.00;99.90
7032;DHT22;3557;48.880;8.328;2022-08-19T04:10:07;20.10;99.90
7032;DHT22;3557;48.880;8.328;2022-08-19T04:12:36;20.00;99.90
7032;DHT22;3557;48.880;8.328;2022-08-19T04:15:03;20.10;99.90
7032;DHT22;3557;48.880;8.328;2022-08-19T04:17:31;20.10;99.90
7032;DHT22;3557;48.880;8.328;2022-08-19T04:19:59;20.10;99.90
7032;DHT22;3557;48.880;8.328;2022-08-19T04:27:21;19.90;99.90
7032;DHT22;3557;48.880;8.328;2022-08-19T04:29:49;19.90;99.90
7032;DHT22;3557;48.880;8.328;2022-08-19T04:32:16;19.90;99.90
7032;DHT22;3557;48.880;8.328;2022-08-19T04:39:38;19.80;99.90
7032;DHT22;3557;48.880;8.328;2022-08-19T04:42:23;19.90;99.90
7032;DHT22;3557;48.880;8.328;2022-08-19T04:45:10;19.90;99.90
7032;DHT22;3557;48.880;8.328;2022-08-19T04:47:40;19.90;99.90
7032;DHT22;3557;48.880;8.328;2022-08-19T04:50:09;19.90;99.90
7032;DHT22;3557;48.880;8.328;2022-08-19T04:52:37;20.00;99.90
7032;DHT22;3557;48.880;8.328;2022-08-19T04:55:08;20.00;99.90
7032;DHT22;3557;48.880;8.328;2022-08-19T04:57:36;20.10;99.90
7032;DHT22;3557;48.880;8.328;2022-08-19T05:00:08;20.10;99.90
7032;DHT22;3557;48.880;8.328;2022-08-19T05:02:36;20.30;99.90
7032;DHT22;3557;48.880;8.328;2022-08-19T05:05:03;20.30;99.90
7032;DHT22;3557;48.880;8.328;2022-08-19T05:07:32;20.50;99.90
7032;DHT22;3557;48.880;8.328;2022-08-19T05:09:59;20.50;99.90
7032;DHT22;3557;48.880;8.328;2022-08-19T05:12:26;20.60;99.90
7032;DHT22;3557;48.880;8.328;2022-08-19T05:17:23;20.60;99.90
7032;DHT22;3557;48.880;8.328;2022-08-19T05:19:50;20.60;99.90
7032;DHT22;3557;48.880;8.328;2022-08-19T05:22:35;20.60;99.90
7032;DHT22;3557;48.880;8.328;2022-08-19T05:25:05;20.50;99.90
7032;DHT22;3557;48.880;8.328;2022-08-19T05:27:34;20.50;99.90
7032;DHT22;3557;48.880;8.328;2022-08-19T05:30:01;20.50;99.90
7032;DHT22;3557;48.880;8.328;2022-08-19T05:32:30;20.60;99.90
7032;DHT22;3557;48.880;8.328;2022-08-19T05:39:53;20.60;99.90
7032;DHT22;3557;48.880;8.328;2022-08-19T05:42:21;20.60;99.90
7032;DHT22;3557;48.880;8.328;2022-08-19T05:44:49;20.70;99.90
7032;DHT22;3557;48.880;8.328;2022-08-19T05:49:47;20.60;99.90
7032;DHT22;3557;48.880;8.328;2022-08-19T05:52:15;20.70;99.90
7032;DHT22;3557;48.880;8.328;2022-08-19T05:54:43;20.70;99.90
7032;DHT22;3557;48.880;8.328;2022-08-19T05:59:37;20.80;99.90
7032;DHT22;3557;48.880;8.328;2022-08-19T06:02:06;20.80;99.90
7032;DHT22;3557;48.880;8.328;2022-08-19T06:04:33;20.80;99.90
7032;DHT22;3557;48.880;8.328;2022-08-19T06:07:02;20.80;99.90
7032;DHT22;3557;48.880;8.328;2022-08-19T06:09:30;20.80;99.90
7032;DHT22;3557;48.880;8.328;2022-08-19T06:11:58;20.80;99.90
7032;DHT22;3557;48.880;8.328;2022-08-19T06:14:30;20.80;99.90
7032;DHT22;3557;48.880;8.328;2022-08-19T06:16:59;20.80;99.90
7032;DHT22;3557;48.880;8.328;2022-08-19T06:19:28;20.80;99.90
7032;DHT22;3557;48.880;8.328;2022-08-19T06:21:57;20.80;99.90
7032;DHT22;3557;48.880;8.328;2022-08-19T06:24:27;20.90;99.90
7032;DHT22;3557;48.880;8.328;2022-08-19T06:26:56;20.90;99.90
7032;DHT22;3557;48.880;8.328;2022-08-19T06:29:25;20.90;99.90
7032;DHT22;3557;48.880;8.328;2022-08-19T06:31:54;20.90;99.90
7032;DHT22;3557;48.880;8.328;2022-08-19T06:36:51;20.90;99.90
7032;DHT22;3557;48.880;8.328;2022-08-19T06:39:21;20.90;99.90
7032;DHT22;3557;48.880;8.328;2022-08-19T06:41:53;21.50;99.90
7032;DHT22;3557;48.880;8.328;2022-08-19T06:44:23;20.90;99.90
7032;DHT22;3557;48.880;8.328;2022-08-19T06:46:52;20.90;99.90
7032;DHT22;3557;48.880;8.328;2022-08-19T06:49:19;21.00;99.90
7032;DHT22;3557;48.880;8.328;2022-08-19T06:51:48;21.00;99.90
7032;DHT22;3557;48.880;8.328;2022-08-19T06:54:16;21.10;99.90
7032;DHT22;3557;48.880;8.328;2022-08-19T06:56:43;21.10;99.90
7032;DHT22;3557;48.880;8.328;2022-08-19T06:59:14;21.10;99.90
7032;DHT22;3557;48.880;8.328;2022-08-19T07:01:44;21.20;99.90
7032;DHT22;3557;48.880;8.328;2022-08-19T07:04:14;21.20;99.90
7032;DHT22;3557;48.880;8.328;2022-08-19T07:06:43;21.40;99.90
7032;DHT22;3557;48.880;8.328;2022-08-19T07:09:12;21.50;99.90
7032;DHT22;3557;48.880;8.328;2022-08-19T07:11:43;21.40;99.90
7032;DHT22;3557;48.880;8.328;2022-08-19T07:14:13;21.50;99.90
7032;DHT22;3557;48.880;8.328;2022-08-19T07:19:12;21.70;99.90
7032;DHT22;3557;48.880;8.328;2022-08-19T07:21:40;21.80;99.90
7032;DHT22;3557;48.880;8.328;2022-08-19T07:24:07;21.90;99.90
7032;DHT22;3557;48.880;8.328;2022-08-19T07:26:38;22.00;99.90
7032;DHT22;3557;48.880;8.328;2022-08-19T07:29:08;22.00;99.90
7032;DHT22;3557;48.880;8.328;2022-08-19T07:31:37;22.10;99.90
7032;DHT22;3557;48.880;8.328;2022-08-19T07:34:05;22.30;99.90
7032;DHT22;3557;48.880;8.328;2022-08-19T07:36:35;22.20;99.90
7032;DHT22;3557;48.880;8.328;2022-08-19T07:39:07;22.30;99.90
7032;DHT22;3557;48.880;8.328;2022-08-19T07:44:05;22.40;99.90
7032;DHT22;3557;48.880;8.328;2022-08-19T07:46:34;22.50;99.90
7032;DHT22;3557;48.880;8.328;2022-08-19T07:49:06;22.70;99.90
7032;DHT22;3557;48.880;8.328;2022-08-19T07:51:45;22.70;99.90
7032;DHT22;3557;48.880;8.328;2022-08-19T07:56:40;22.90;99.90
7032;DHT22;3557;48.880;8.328;2022-08-19T07:59:07;22.90;99.90
7032;DHT22;3557;48.880;8.328;2022-08-19T08:01:37;22.90;99.90
7032;DHT22;3557;48.880;8.328;2022-08-19T08:04:06;22.90;99.90
7032;DHT22;3557;48.880;8.328;2022-08-19T08:06:51;22.90;99.90
7032;DHT22;3557;48.880;8.328;2022-08-19T08:09:37;22.90;99.90
7032;DHT22;3557;48.880;8.328;2022-08-19T08:12:08;23.00;99.90
7032;DHT22;3557;48.880;8.328;2022-08-19T08:14:41;23.10;99.90
7032;DHT22;3557;48.880;8.328;2022-08-19T08:17:11;23.30;99.90
7032;DHT22;3557;48.880;8.328;2022-08-19T08:19:41;23.70;99.90
7032;DHT22;3557;48.880;8.328;2022-08-19T08:22:10;24.40;99.90
7032;DHT22;3557;48.880;8.328;2022-08-19T08:25:01;24.80;99.90
7032;DHT22;3557;48.880;8.328;2022-08-19T08:27:29;25.00;99.90
7032;DHT22;3557;48.880;8.328;2022-08-19T08:29:56;25.10;99.90
7032;DHT22;3557;48.880;8.328;2022-08-19T08:32:25;25.30;99.90
7032;DHT22;3557;48.880;8.328;2022-08-19T08:37:20;25.60;99.90
7032;DHT22;3557;48.880;8.328;2022-08-19T08:39:47;26.00;99.90
7032;DHT22;3557;48.880;8.328;2022-08-19T08:42:20;26.30;99.90
7032;DHT22;3557;48.880;8.328;2022-08-19T08:44:56;26.60;99.90
7032;DHT22;3557;48.880;8.328;2022-08-19T08:47:30;26.50;99.90
7032;DHT22;3557;48.880;8.328;2022-08-19T08:50:03;26.50;99.90
7032;DHT22;3557;48.880;8.328;2022-08-19T08:52:34;26.50;99.90
7032;DHT22;3557;48.880;8.328;2022-08-19T08:55:07;26.20;99.90
7032;DHT22;3557;48.880;8.328;2022-08-19T08:57:39;26.20;99.90
7032;DHT22;3557;48.880;8.328;2022-08-19T09:00:15;26.20;99.90
7032;DHT22;3557;48.880;8.328;2022-08-19T09:02:48;26.50;99.90
7032;DHT22;3557;48.880;8.328;2022-08-19T09:05:15;26.80;99.90
7032;DHT22;3557;48.880;8.328;2022-08-19T09:07:46;27.10;99.90
7032;DHT22;3557;48.880;8.328;2022-08-19T09:10:19;26.90;99.90
7032;DHT22;3557;48.880;8.328;2022-08-19T09:12:55;26.40;99.90
7032;DHT22;3557;48.880;8.328;2022-08-19T09:15:30;26.00;99.90
7032;DHT22;3557;48.880;8.328;2022-08-19T09:18:03;25.90;99.90
7032;DHT22;3557;48.880;8.328;2022-08-19T09:20:31;25.90;99.90
7032;DHT22;3557;48.880;8.328;2022-08-19T09:25:26;26.00;99.90
7032;DHT22;3557;48.880;8.328;2022-08-19T09:27:54;26.00;99.90
7032;DHT22;3557;48.880;8.328;2022-08-19T09:30:24;26.20;99.90
7032;DHT22;3557;48.880;8.328;2022-08-19T09:32:53;26.60;99.90
7032;DHT22;3557;48.880;8.328;2022-08-19T09:35:23;27.00;99.90
7032;DHT22;3557;48.880;8.328;2022-08-19T09:37:53;27.50;99.90
7032;DHT22;3557;48.880;8.328;2022-08-19T09:40:20;27.30;99.90
7032;DHT22;3557;48.880;8.328;2022-08-19T09:42:47;27.40;99.90
7032;DHT22;3557;48.880;8.328;2022-08-19T09:45:15;27.40;99.90
7032;DHT22;3557;48.880;8.328;2022-08-19T09:47:43;27.10;99.90
7032;DHT22;3557;48.880;8.328;2022-08-19T09:50:12;27.20;99.90
7032;DHT22;3557;48.880;8.328;2022-08-19T09:52:40;27.40;99.90
7032;DHT22;3557;48.880;8.328;2022-08-19T09:55:09;27.50;99.90
7032;DHT22;3557;48.880;8.328;2022-08-19T10:00:07;27.50;99.90
7032;DHT22;3557;48.880;8.328;2022-08-19T10:02:35;27.70;99.90
7032;DHT22;3557;48.880;8.328;2022-08-19T10:05:04;27.80;99.90
7032;DHT22;3557;48.880;8.328;2022-08-19T10:07:50;27.90;99.90
7032;DHT22;3557;48.880;8.328;2022-08-19T10:10:17;28.00;99.90
7032;DHT22;3557;48.880;8.328;2022-08-19T10:15:13;28.50;96.60
7032;DHT22;3557;48.880;8.328;2022-08-19T10:17:40;28.30;99.90
7032;DHT22;3557;48.880;8.328;2022-08-19T10:20:08;28.30;99.90
7032;DHT22;3557;48.880;8.328;2022-08-19T10:22:36;27.90;99.90
7032;DHT22;3557;48.880;8.328;2022-08-19T10:25:06;27.60;99.90
7032;DHT22;3557;48.880;8.328;2022-08-19T10:27:33;28.10;99.90
7032;DHT22;3557;48.880;8.328;2022-08-19T10:30:00;28.20;97.40
7032;DHT22;3557;48.880;8.328;2022-08-19T10:34:55;29.50;86.40
7032;DHT22;3557;48.880;8.328;2022-08-19T10:37:23;29.90;83.60
7032;DHT22;3557;48.880;8.328;2022-08-19T10:39:50;30.00;78.80
7032;DHT22;3557;48.880;8.328;2022-08-19T10:42:19;29.70;80.10
7032;DHT22;3557;48.880;8.328;2022-08-19T10:47:14;30.00;76.70
7032;DHT22;3557;48.880;8.328;2022-08-19T10:55:05;29.60;83.00
7032;DHT22;3557;48.880;8.328;2022-08-19T10:57:52;30.00;83.90
7032;DHT22;3557;48.880;8.328;2022-08-19T11:00:19;30.30;75.10
7032;DHT22;3557;48.880;8.328;2022-08-19T11:02:46;30.00;76.20
7032;DHT22;3557;48.880;8.328;2022-08-19T11:07:43;29.70;77.90
7032;DHT22;3557;48.880;8.328;2022-08-19T11:10:12;29.30;78.60
7032;DHT22;3557;48.880;8.328;2022-08-19T11:12:41;29.40;80.10
7032;DHT22;3557;48.880;8.328;2022-08-19T11:15:10;29.60;82.70
7032;DHT22;3557;48.880;8.328;2022-08-19T11:17:37;29.20;81.70
7032;DHT22;3557;48.880;8.328;2022-08-19T11:20:07;28.70;86.00
7032;DHT22;3557;48.880;8.328;2022-08-19T11:22:35;28.30;92.60
7032;DHT22;3557;48.880;8.328;2022-08-19T11:25:03;28.00;97.80
7032;DHT22;3557;48.880;8.328;2022-08-19T11:27:31;28.10;97.70
7032;DHT22;3557;48.880;8.328;2022-08-19T11:29:57;28.00;96.00
7032;DHT22;3557;48.880;8.328;2022-08-19T11:32:27;28.40;95.70
7032;DHT22;3557;48.880;8.328;2022-08-19T11:34:54;28.50;95.20
7032;DHT22;3557;48.880;8.328;2022-08-19T11:37:21;28.40;95.90
7032;DHT22;3557;48.880;8.328;2022-08-19T11:44:59;27.20;99.90
7032;DHT22;3557;48.880;8.328;2022-08-19T11:47:29;27.00;99.90
7032;DHT22;3557;48.880;8.328;2022-08-19T11:49:57;26.90;99.90
7032;DHT22;3557;48.880;8.328;2022-08-19T11:52:23;26.60;99.90
7032;DHT22;3557;48.880;8.328;2022-08-19T11:59:48;27.00;99.90
7032;DHT22;3557;48.880;8.328;2022-08-19T12:04:45;28.60;97.50
7032;DHT22;3557;48.880;8.328;2022-08-19T12:09:40;29.40;88.10
7032;DHT22;3557;48.880;8.328;2022-08-19T12:12:08;29.50;89.40
7032;DHT22;3557;48.880;8.328;2022-08-19T12:14:35;29.20;87.80
7032;DHT22;3557;48.880;8.328;2022-08-19T12:17:03;28.50;94.00
7032;DHT22;3557;48.880;8.328;2022-08-19T12:19:33;27.90;99.80
7032;DHT22;3557;48.880;8.328;2022-08-19T12:22:02;27.30;98.90
7032;DHT22;3557;48.880;8.328;2022-08-19T12:24:30;26.90;98.70
7032;DHT22;3557;48.880;8.328;2022-08-19T12:26:58;26.60;99.90
7032;DHT22;3557;48.880;8.328;2022-08-19T12:31:55;26.20;99.90
7032;DHT22;3557;48.880;8.328;2022-08-19T12:34:27;26.00;99.90
7032;DHT22;3557;48.880;8.328;2022-08-19T12:36:56;25.90;99.90
7032;DHT22;3557;48.880;8.328;2022-08-19T12:39:25;25.80;99.90
7032;DHT22;3557;48.880;8.328;2022-08-19T12:41:53;25.80;99.90
7032;DHT22;3557;48.880;8.328;2022-08-19T12:44:20;25.90;99.90
7032;DHT22;3557;48.880;8.328;2022-08-19T12:46:47;26.00;99.90
7032;DHT22;3557;48.880;8.328;2022-08-19T12:49:15;26.10;99.90
7032;DHT22;3557;48.880;8.328;2022-08-19T12:54:09;26.30;99.90
7032;DHT22;3557;48.880;8.328;2022-08-19T12:56:38;26.30;99.90
7032;DHT22;3557;48.880;8.328;2022-08-19T12:59:05;26.30;99.90
7032;DHT22;3557;48.880;8.328;2022-08-19T13:06:28;26.70;99.90
7032;DHT22;3557;48.880;8.328;2022-08-19T13:08:55;27.00;99.90
7032;DHT22;3557;48.880;8.328;2022-08-19T13:13:53;28.20;99.90
7032;DHT22;3557;48.880;8.328;2022-08-19T13:16:20;28.80;94.40
7032;DHT22;3557;48.880;8.328;2022-08-19T13:18:49;29.30;84.80
7032;DHT22;3557;48.880;8.328;2022-08-19T13:21:19;29.50;78.30
7032;DHT22;3557;48.880;8.328;2022-08-19T13:23:46;29.60;77.10
7032;DHT22;3557;48.880;8.328;2022-08-19T13:26:14;30.20;74.20
7032;DHT22;3557;48.880;8.328;2022-08-19T13:28:43;31.00;71.80
7032;DHT22;3557;48.880;8.328;2022-08-19T13:31:31;31.10;62.90
7032;DHT22;3557;48.880;8.328;2022-08-19T13:34:18;30.40;59.50
7032;DHT22;3557;48.880;8.328;2022-08-19T13:36:46;30.80;61.80
7032;DHT22;3557;48.880;8.328;2022-08-19T13:39:13;30.90;59.50
7032;DHT22;3557;48.880;8.328;2022-08-19T13:41:44;31.10;59.00
7032;DHT22;3557;48.880;8.328;2022-08-19T13:46:42;30.70;59.40
7032;DHT22;3557;48.880;8.328;2022-08-19T13:49:11;31.00;58.70
7032;DHT22;3557;48.880;8.328;2022-08-19T13:51:41;30.10;59.10
7032;DHT22;3557;48.880;8.328;2022-08-19T13:54:09;29.60;61.20
7032;DHT22;3557;48.880;8.328;2022-08-19T13:56:40;29.00;63.30
7032;DHT22;3557;48.880;8.328;2022-08-19T13:59:09;28.80;67.00
7032;DHT22;3557;48.880;8.328;2022-08-19T14:04:05;28.80;66.30
7032;DHT22;3557;48.880;8.328;2022-08-19T14:09:00;29.70;64.30
7032;DHT22;3557;48.880;8.328;2022-08-19T14:11:28;30.20;62.80
7032;DHT22;3557;48.880;8.328;2022-08-19T14:21:22;30.90;60.60
7032;DHT22;3557;48.880;8.328;2022-08-19T14:23:50;30.40;61.00
7032;DHT22;3557;48.880;8.328;2022-08-19T14:26:19;29.50;63.10
7032;DHT22;3557;48.880;8.328;2022-08-19T14:28:46;29.20;66.10
7032;DHT22;3557;48.880;8.328;2022-08-19T14:31:15;29.10;66.00
7032;DHT22;3557;48.880;8.328;2022-08-19T14:33:44;29.10;66.60
7032;DHT22;3557;48.880;8.328;2022-08-19T14:38:41;28.80;67.00
7032;DHT22;3557;48.880;8.328;2022-08-19T14:41:10;28.90;67.90
7032;DHT22;3557;48.880;8.328;2022-08-19T14:43:43;28.80;67.40
7032;DHT22;3557;48.880;8.328;2022-08-19T14:46:12;26.70;66.30
7032;DHT22;3557;48.880;8.328;2022-08-19T14:51:09;28.40;68.00
7032;DHT22;3557;48.880;8.328;2022-08-19T14:56:08;28.30;69.10
7032;DHT22;3557;48.880;8.328;2022-08-19T15:03:31;27.70;69.00
7032;DHT22;3557;48.880;8.328;2022-08-19T15:05:59;27.60;69.00
7032;DHT22;3557;48.880;8.328;2022-08-19T15:08:28;27.40;68.50
7032;DHT22;3557;48.880;8.328;2022-08-19T15:10:58;27.30;70.10
7032;DHT22;3557;48.880;8.328;2022-08-19T15:13:28;27.30;69.90
7032;DHT22;3557;48.880;8.328;2022-08-19T15:15:56;27.20;70.80
7032;DHT22;3557;48.880;8.328;2022-08-19T15:20:51;27.20;66.20
7032;DHT22;3557;48.880;8.328;2022-08-19T15:23:18;27.20;67.60
7032;DHT22;3557;48.880;8.328;2022-08-19T15:30:43;27.20;66.80
7032;DHT22;3557;48.880;8.328;2022-08-19T15:48:00;27.30;63.30
7032;DHT22;3557;48.880;8.328;2022-08-19T15:50:28;27.60;63.10
7032;DHT22;3557;48.880;8.328;2022-08-19T15:52:58;27.50;63.60
7032;DHT22;3557;48.880;8.328;2022-08-19T15:55:31;27.50;62.60
7032;DHT22;3557;48.880;8.328;2022-08-19T16:03:30;27.60;62.80
7032;DHT22;3557;48.880;8.328;2022-08-19T16:11:21;27.90;63.50
7032;DHT22;3557;48.880;8.328;2022-08-19T16:13:50;27.90;63.40
7032;DHT22;3557;48.880;8.328;2022-08-19T16:16:18;28.20;63.70
7032;DHT22;3557;48.880;8.328;2022-08-19T16:18:49;28.30;65.30
7032;DHT22;3557;48.880;8.328;2022-08-19T16:21:18;28.60;65.80
7032;DHT22;3557;48.880;8.328;2022-08-19T16:23:47;28.60;67.10
7032;DHT22;3557;48.880;8.328;2022-08-19T16:26:16;28.50;67.90
7032;DHT22;3557;48.880;8.328;2022-08-19T16:28:45;28.40;68.20
7032;DHT22;3557;48.880;8.328;2022-08-19T16:31:14;28.70;67.10
7032;DHT22;3557;48.880;8.328;2022-08-19T16:36:09;29.20;66.10
7032;DHT22;3557;48.880;8.328;2022-08-19T16:45:59;29.60;64.10
7032;DHT22;3557;48.880;8.328;2022-08-19T16:48:28;29.50;65.10
7032;DHT22;3557;48.880;8.328;2022-08-19T16:53:27;29.40;65.00
7032;DHT22;3557;48.880;8.328;2022-08-19T16:55:57;28.90;66.40
7032;DHT22;3557;48.880;8.328;2022-08-19T16:58:26;29.00;67.20
7032;DHT22;3557;48.880;8.328;2022-08-19T17:00:56;29.20;66.50
7032;DHT22;3557;48.880;8.328;2022-08-19T17:05:53;29.00;66.50
7032;DHT22;3557;48.880;8.328;2022-08-19T17:08:22;28.90;66.50
7032;DHT22;3557;48.880;8.328;2022-08-19T17:10:53;28.90;67.50
7032;DHT22;3557;48.880;8.328;2022-08-19T17:15:48;29.10;67.40
7032;DHT22;3557;48.880;8.328;2022-08-19T17:18:16;29.00;67.30
7032;DHT22;3557;48.880;8.328;2022-08-19T17:23:12;28.60;66.10
7032;DHT22;3557;48.880;8.328;2022-08-19T17:28:10;28.00;67.30
7032;DHT22;3557;48.880;8.328;2022-08-19T17:33:07;27.70;68.10
7032;DHT22;3557;48.880;8.328;2022-08-19T17:35:34;27.60;69.10
7032;DHT22;3557;48.880;8.328;2022-08-19T17:38:03;27.80;69.30
7032;DHT22;3557;48.880;8.328;2022-08-19T17:40:31;27.80;68.20
7032;DHT22;3557;48.880;8.328;2022-08-19T17:45:26;27.90;67.10
7032;DHT22;3557;48.880;8.328;2022-08-19T18:00:14;27.50;67.20
7032;DHT22;3557;48.880;8.328;2022-08-19T18:02:47;27.50;68.20
7032;DHT22;3557;48.880;8.328;2022-08-19T18:05:16;27.30;67.80
7032;DHT22;3557;48.880;8.328;2022-08-19T18:10:11;27.20;68.20
7032;DHT22;3557;48.880;8.328;2022-08-19T18:15:07;27.00;68.90
7032;DHT22;3557;48.880;8.328;2022-08-19T18:17:35;27.00;69.30
7032;DHT22;3557;48.880;8.328;2022-08-19T18:20:06;26.80;68.40
7032;DHT22;3557;48.880;8.328;2022-08-19T18:22:37;26.60;69.60
7032;DHT22;3557;48.880;8.328;2022-08-19T18:25:08;26.60;69.40
7032;DHT22;3557;48.880;8.328;2022-08-19T18:30:05;26.40;70.60
7032;DHT22;3557;48.880;8.328;2022-08-19T18:32:36;26.30;70.40
7032;DHT22;3557;48.880;8.328;2022-08-19T18:35:10;26.10;71.50
7032;DHT22;3557;48.880;8.328;2022-08-19T18:37:39;26.10;72.50
7032;DHT22;3557;48.880;8.328;2022-08-19T18:40:10;26.00;73.70
7032;DHT22;3557;48.880;8.328;2022-08-19T18:45:41;25.80;75.20
7032;DHT22;3557;48.880;8.328;2022-08-19T18:51:14;25.60;79.20
7032;DHT22;3557;48.880;8.328;2022-08-19T18:53:43;25.60;80.10
7032;DHT22;3557;48.880;8.328;2022-08-19T18:56:13;25.50;82.90
7032;DHT22;3557;48.880;8.328;2022-08-19T18:58:42;25.40;83.20
7032;DHT22;3557;48.880;8.328;2022-08-19T19:01:11;25.40;85.40
7032;DHT22;3557;48.880;8.328;2022-08-19T19:03:43;25.40;87.10
7032;DHT22;3557;48.880;8.328;2022-08-19T19:06:15;25.30;88.10
7032;DHT22;3557;48.880;8.328;2022-08-19T19:16:10;25.20;90.80
7032;DHT22;3557;48.880;8.328;2022-08-19T19:18:37;25.20;91.70
7032;DHT22;3557;48.880;8.328;2022-08-19T19:21:04;25.20;91.70
7032;DHT22;3557;48.880;8.328;2022-08-19T19:23:33;25.10;92.30
7032;DHT22;3557;48.880;8.328;2022-08-19T19:26:05;25.10;92.30
7032;DHT22;3557;48.880;8.328;2022-08-19T19:28:36;25.10;92.40
7032;DHT22;3557;48.880;8.328;2022-08-19T19:31:10;25.10;92.80
7032;DHT22;3557;48.880;8.328;2022-08-19T19:36:06;25.00;93.40
7032;DHT22;3557;48.880;8.328;2022-08-19T19:38:35;24.90;94.40
7032;DHT22;3557;48.880;8.328;2022-08-19T19:41:03;24.90;95.50
7032;DHT22;3557;48.880;8.328;2022-08-19T19:50:53;24.90;98.20
7032;DHT22;3557;48.880;8.328;2022-08-19T19:55:50;24.70;99.90
7032;DHT22;3557;48.880;8.328;2022-08-19T20:08:12;24.50;99.90
7032;DHT22;3557;48.880;8.328;2022-08-19T20:11:00;24.50;99.90
7032;DHT22;3557;48.880;8.328;2022-08-19T20:13:28;24.40;99.90
7032;DHT22;3557;48.880;8.328;2022-08-19T20:28:20;24.30;99.90
7032;DHT22;3557;48.880;8.328;2022-08-19T20:38:11;24.10;99.90
7032;DHT22;3557;48.880;8.328;2022-08-19T20:40:38;24.10;99.90
7032;DHT22;3557;48.880;8.328;2022-08-19T20:43:09;24.10;99.90
7032;DHT22;3557;48.880;8.328;2022-08-19T20:45:38;24.10;99.90
7032;DHT22;3557;48.880;8.328;2022-08-19T20:48:07;24.10;99.90
7032;DHT22;3557;48.880;8.328;2022-08-19T20:53:08;24.00;99.90
7032;DHT22;3557;48.880;8.328;2022-08-19T21:00:32;23.90;99.90
7032;DHT22;3557;48.880;8.328;2022-08-19T21:03:00;23.90;99.90
7032;DHT22;3557;48.880;8.328;2022-08-19T21:05:27;23.90;99.90
7032;DHT22;3557;48.880;8.328;2022-08-19T21:07:54;23.80;99.90
7032;DHT22;3557;48.880;8.328;2022-08-19T21:10:22;23.80;99.90
7032;DHT22;3557;48.880;8.328;2022-08-19T21:12:50;23.80;99.90